Latest Weather Observations for Point Wilson

IDV60801

Issued at 8:35 pm EST Saturday 19 April 2014 (issued every 30 minutes, with the page automatically refreshed every 10 minutes)

About weather observations | Map of weather stations | Latest weather observations for VIC | Other Formats
Station Details ID: 087166 Name: POINT WILSON Lat: -38.10 Lon: 144.54 Height: 18.0 m
Data from the previous 72 hours. | See also: Recent months at Point Wilson
Date/Time
EST
Temp
°C
App
Temp
°C
Dew
Point
Rel
Hum
%
Delta-T
°C
Wind Press
QNH
hPa
Press
MSL
hPa
Rain
since 9 am
mm
Dir
 
Spd
km/h
Gust
km/h
Spd
kts
Gust
kts
19/08:30pm - - - - - WSW 4 9 2 5 - - -
19/08:00pm - - - - - SSW 9 13 5 7 - - -
19/07:30pm - - - - - SSW 11 15 6 8 - - -
19/07:00pm - - - - - SSW 13 15 7 8 - - -
19/06:30pm - - - - - SSW 15 19 8 10 - - -
19/06:00pm - - - - - SSW 15 19 8 10 - - -
19/05:30pm - - - - - S 11 15 6 8 - - -
19/05:00pm - - - - - SSW 15 19 8 10 - - -
19/04:30pm - - - - - S 17 20 9 11 - - -
19/04:00pm - - - - - SW 9 13 5 7 - - -
19/03:30pm - - - - - SW 11 17 6 9 - - -
19/03:00pm - - - - - SSW 17 24 9 13 - - -
19/02:30pm - - - - - SSW 22 26 12 14 - - -
19/02:00pm - - - - - W 17 20 9 11 - - -
19/01:30pm - - - - - WSW 19 24 10 13 - - -
19/01:00pm - - - - - WSW 20 24 11 13 - - -
19/12:30pm - - - - - WSW 30 33 16 18 - - -
19/12:00pm - - - - - WSW 22 26 12 14 - - -
19/11:30am - - - - - WSW 24 30 13 16 - - -
19/11:00am - - - - - WSW 28 33 15 18 - - -
19/10:30am - - - - - WSW 24 30 13 16 - - -
19/10:00am - - - - - W 30 35 16 19 - - -
19/09:30am - - - - - WSW 28 32 15 17 - - -
19/09:00am - - - - - W 24 28 13 15 - - -
19/08:30am - - - - - W 22 28 12 15 - - -
19/08:00am - - - - - WSW 22 28 12 15 - - -
19/07:30am - - - - - W 24 30 13 16 - - -
19/07:00am - - - - - W 26 32 14 17 - - -
19/06:30am - - - - - W 26 32 14 17 - - -
19/06:00am - - - - - WSW 30 37 16 20 - - -
19/05:30am - - - - - SW 32 39 17 21 - - -
19/05:00am - - - - - W 26 30 14 16 - - -
19/04:30am - - - - - W 28 35 15 19 - - -
19/04:00am - - - - - W 32 39 17 21 - - -
19/03:30am - - - - - W 30 37 16 20 - - -
19/03:00am - - - - - WSW 24 30 13 16 - - -
19/02:30am - - - - - W 24 30 13 16 - - -
19/02:00am - - - - - WSW 22 28 12 15 - - -
19/01:30am - - - - - W 26 30 14 16 - - -
19/01:00am - - - - - W 28 35 15 19 - - -
19/12:30am - - - - - W 28 32 15 17 - - -
19/12:00am - - - - - W 30 39 16 21 - - -
 
Date/Time
EST
Temp
°C
App
Temp
°C
Dew
Point
Rel
Hum
%
Delta-T
°C
Wind Press
QNH
hPa
Press
MSL
hPa
Rain
since 9 am
mm
Dir
 
Spd
km/h
Gust
km/h
Spd
kts
Gust
kts
18/11:30pm - - - - - WSW 24 32 13 17 - - -
18/11:00pm - - - - - SW 32 37 17 20 - - -
18/10:30pm - - - - - WSW 28 32 15 17 - - -
18/10:00pm - - - - - WSW 28 32 15 17 - - -
18/09:30pm - - - - - W 32 37 17 20 - - -
18/09:00pm - - - - - WSW 32 41 17 22 - - -
18/08:30pm - - - - - WSW 30 33 16 18 - - -
18/08:00pm - - - - - WSW 30 37 16 20 - - -
18/07:30pm - - - - - WSW 32 39 17 21 - - -
18/07:00pm - - - - - WSW 32 37 17 20 - - -
18/06:30pm - - - - - WSW 30 37 16 20 - - -
18/06:00pm - - - - - SW 28 37 15 20 - - -
18/05:30pm - - - - - SW 28 32 15 17 - - -
18/05:00pm - - - - - SSW 35 41 19 22 - - -
18/04:30pm - - - - - SW 32 39 17 21 - - -
18/04:00pm - - - - - SW 30 35 16 19 - - -
18/03:30pm - - - - - SW 37 43 20 23 - - -
18/03:00pm - - - - - SSW 41 48 22 26 - - -
18/02:30pm - - - - - SW 35 41 19 22 - - -
18/02:00pm - - - - - SW 30 48 16 26 - - -
18/01:30pm - - - - - SW 39 48 21 26 - - -
18/01:00pm - - - - - SW 39 46 21 25 - - -
18/12:30pm - - - - - SW 30 37 16 20 - - -
18/12:00pm - - - - - SW 35 43 19 23 - - -
18/11:43am - - - - - SW 37 54 20 29 - - -
18/11:30am - - - - - SW 30 35 16 19 - - -
18/11:00am - - - - - SW 33 43 18 23 - - -
18/10:30am - - - - - WSW 32 39 17 21 - - -
18/10:00am - - - - - W 46 59 25 32 - - -
18/09:50am - - - - - W 43 57 23 31 - - -
18/09:30am - - - - - WNW 32 37 17 20 - - -
18/09:00am - - - - - W 22 32 12 17 - - -
18/08:30am - - - - - W 13 15 7 8 - - -
18/08:00am - - - - - W 6 9 3 5 - - -
18/07:30am - - - - - NW 7 11 4 6 - - -
18/07:00am - - - - - NNE 11 11 6 6 - - -
18/06:30am - - - - - NNE 9 11 5 6 - - -
18/06:00am - - - - - NE 13 15 7 8 - - -
18/05:30am - - - - - N 9 13 5 7 - - -
18/05:00am - - - - - N 9 13 5 7 - - -
18/04:30am - - - - - NW 9 9 5 5 - - -
18/04:00am - - - - - WNW 13 15 7 8 - - -
18/03:30am - - - - - NW 17 20 9 11 - - -
18/03:00am - - - - - NW 17 19 9 10 - - -
18/02:30am - - - - - WNW 17 20 9 11 - - -
18/02:00am - - - - - WNW 19 22 10 12 - - -
18/01:30am - - - - - W 28 32 15 17 - - -
18/01:00am - - - - - W 26 32 14 17 - - -
18/12:30am - - - - - WNW 19 26 10 14 - - -
18/12:00am - - - - - WNW 17 19 9 10 - - -
 
Date/Time
EST
Temp
°C
App
Temp
°C
Dew
Point
Rel
Hum
%
Delta-T
°C
Wind Press
QNH
hPa
Press
MSL
hPa
Rain
since 9 am
mm
Dir
 
Spd
km/h
Gust
km/h
Spd
kts
Gust
kts
17/11:30pm - - - - - W 13 15 7 8 - - -
17/11:00pm - - - - - SSW 15 19 8 10 - - -
17/10:30pm - - - - - SSW 17 20 9 11 - - -
17/10:00pm - - - - - SSW 20 22 11 12 - - -
17/09:30pm - - - - - SW 17 28 9 15 - - -
17/09:00pm - - - - - N 4 11 2 6 - - -
17/08:30pm - - - - - NNE 7 11 4 6 - - -
17/08:00pm - - - - - ENE 6 7 3 4 - - -
17/07:30pm - - - - - ENE 11 13 6 7 - - -
17/07:00pm - - - - - ENE 13 15 7 8 - - -
17/06:30pm - - - - - E 13 13 7 7 - - -
17/06:00pm - - - - - E 15 17 8 9 - - -
17/05:30pm - - - - - E 17 19 9 10 - - -
17/05:00pm - - - - - E 20 24 11 13 - - -
17/04:30pm - - - - - E 22 26 12 14 - - -
17/04:00pm - - - - - E 20 24 11 13 - - -
17/03:30pm - - - - - E 19 20 10 11 - - -
17/03:00pm - - - - - E 17 19 9 10 - - -
17/02:30pm - - - - - E 17 19 9 10 - - -
17/02:00pm - - - - - E 15 17 8 9 - - -
17/01:30pm - - - - - E 13 13 7 7 - - -
17/01:00pm - - - - - E 11 13 6 7 - - -
17/12:30pm - - - - - E 9 13 5 7 - - -
17/12:00pm - - - - - ESE 7 9 4 5 - - -
17/11:30am - - - - - CALM 0 0 0 0 - - -
17/11:00am - - - - - CALM 0 0 0 0 - - -
17/10:30am - - - - - CALM 0 0 0 0 - - -
17/10:00am - - - - - CALM 0 0 0 0 - - -
17/09:30am - - - - - CALM 0 0 0 0 - - -
17/09:00am - - - - - NW 6 7 3 4 - - -
17/08:30am - - - - - NW 9 11 5 6 - - -
17/08:00am - - - - - NNW 11 13 6 7 - - -
17/07:30am - - - - - NNW 7 11 4 6 - - -
17/07:00am - - - - - NW 7 11 4 6 - - -
17/06:30am - - - - - WNW 9 11 5 6 - - -
17/06:00am - - - - - WSW 11 13 6 7 - - -
17/05:30am - - - - - WSW 15 17 8 9 - - -
17/05:00am - - - - - W 17 19 9 10 - - -
17/04:30am - - - - - WSW 9 11 5 6 - - -
17/04:00am - - - - - WSW 11 13 6 7 - - -
17/03:30am - - - - - W 13 15 7 8 - - -
17/03:00am - - - - - WSW 9 11 5 6 - - -
17/02:30am - - - - - WSW 7 9 4 5 - - -
17/02:00am - - - - - W 7 7 4 4 - - -
17/01:30am - - - - - NW 7 9 4 5 - - -
17/01:00am - - - - - NW 9 13 5 7 - - -
17/12:30am - - - - - N 9 11 5 6 - - -
17/12:00am - - - - - W 11 15 6 8 - - -
 
Date/Time
EST
Temp
°C
App
Temp
°C
Dew
Point
Rel
Hum
%
Delta-T
°C
Wind Press
QNH
hPa
Press
MSL
hPa
Rain
since 9 am
mm
Dir
 
Spd
km/h
Gust
km/h
Spd
kts
Gust
kts
16/11:30pm - - - - - W 11 13 6 7 - - -
16/11:00pm - - - - - NNW 9 11 5 6 - - -
16/10:30pm - - - - - NNW 9 11 5 6 - - -
16/10:00pm - - - - - N 11 13 6 7 - - -
16/09:30pm - - - - - NNW 9 11 5 6 - - -
16/09:00pm - - - - - N 7 11 4 6 - - -

Other Formats:

Comma delimited format used in spreadsheet applications
http://www.bom.gov.au/fwo/IDV60801/IDV60801.94847.axf

JavaScript Object Notation format (JSON) in row-major order
http://www.bom.gov.au/fwo/IDV60801/IDV60801.94847.json